createdAt,value
2018-04-08T00:00:35.055Z,1002.60
2018-04-08T00:01:34.889Z,1002.59
2018-04-08T00:03:28.290Z,1002.63
2018-04-08T00:04:28.103Z,1002.62
2018-04-08T00:06:21.984Z,1002.61
2018-04-08T00:07:21.317Z,1002.63
2018-04-08T00:09:14.611Z,1002.59
2018-04-08T00:10:14.531Z,1002.58
2018-04-08T00:12:07.825Z,1002.58
2018-04-08T00:13:07.750Z,1002.60
2018-04-08T00:15:01.129Z,1002.58
2018-04-08T00:16:00.960Z,1002.55
2018-04-08T00:17:54.332Z,1002.57
2018-04-08T00:18:54.250Z,1002.55
2018-04-08T00:20:47.530Z,1002.52
2018-04-08T00:21:47.464Z,1002.51
2018-04-08T00:23:40.865Z,1002.49
2018-04-08T00:24:40.687Z,1002.48
2018-04-08T00:26:34.058Z,1002.46
2018-04-08T00:27:33.898Z,1002.42
2018-04-08T00:29:27.189Z,1002.43
2018-04-08T00:30:27.104Z,1002.40
2018-04-08T00:32:20.503Z,1002.37
2018-04-08T00:33:20.318Z,1002.36
2018-04-08T00:35:13.698Z,1002.35
2018-04-08T00:36:13.531Z,1002.34
2018-04-08T00:38:06.931Z,1002.31
2018-04-08T00:39:06.745Z,1002.31
2018-04-08T00:41:00.128Z,1002.28
2018-04-08T00:41:59.956Z,1002.30
2018-04-08T00:43:53.250Z,1002.26
2018-04-08T00:44:53.168Z,1002.30
2018-04-08T00:46:46.550Z,1002.30
2018-04-08T00:47:46.374Z,1002.29
2018-04-08T00:49:39.772Z,1002.28
2018-04-08T00:50:39.585Z,1002.25
2018-04-08T00:52:32.893Z,1002.23
2018-04-08T00:53:32.803Z,1002.25
2018-04-08T00:55:26.183Z,1002.26
2018-04-08T00:56:26.015Z,1002.22
2018-04-08T00:58:19.308Z,1002.19
2018-04-08T00:59:19.227Z,1002.20
2018-04-08T01:01:12.607Z,1002.20
2018-04-08T01:02:12.438Z,1002.24
2018-04-08T01:04:05.731Z,1002.25
2018-04-08T01:05:05.649Z,1002.24
2018-04-08T01:06:59.029Z,1002.25
2018-04-08T01:07:58.860Z,1002.25
2018-04-08T01:09:52.156Z,1002.21
2018-04-08T01:10:52.072Z,1002.20
2018-04-08T01:12:45.472Z,1002.14
2018-04-08T01:13:45.282Z,1002.13
2018-04-08T01:15:38.665Z,1002.14
2018-04-08T01:16:38.494Z,1002.12
2018-04-08T01:18:31.788Z,1002.09
2018-04-08T01:19:31.711Z,1002.09
2018-04-08T01:21:24.977Z,1002.08
2018-04-08T01:22:24.915Z,1002.10
2018-04-08T01:24:18.312Z,1002.10
2018-04-08T01:25:18.125Z,1002.13
2018-04-08T01:27:11.505Z,1002.11
2018-04-08T01:28:11.327Z,1002.13
2018-04-08T01:30:04.725Z,1002.05
2018-04-08T01:31:04.538Z,1002.09
2018-04-08T01:32:57.935Z,1002.07
2018-04-08T01:33:57.751Z,1002.05
2018-04-08T01:35:51.025Z,1002.03
2018-04-08T01:36:50.961Z,1002.07
2018-04-08T01:38:44.257Z,1002.02
2018-04-08T01:39:44.172Z,1002.01
2018-04-08T01:41:37.552Z,1002.01
2018-04-08T01:42:37.393Z,1002.01
2018-04-08T01:44:30.684Z,1001.97
2018-04-08T01:45:30.603Z,1001.97
2018-04-08T01:47:23.868Z,1001.99
2018-04-08T01:48:23.805Z,1002.07
2018-04-08T01:50:17.203Z,1002.02
2018-04-08T01:51:17.015Z,1002.01
2018-04-08T01:53:10.414Z,1002.01
2018-04-08T01:54:10.226Z,1002.03
2018-04-08T01:56:03.604Z,1002.00
2018-04-08T01:57:03.434Z,1002.01
2018-04-08T01:58:56.834Z,1001.97
2018-04-08T01:59:56.644Z,1001.99
2018-04-08T02:01:50.022Z,1002.03
2018-04-08T02:02:49.852Z,1002.00
2018-04-08T02:04:43.249Z,1002.05
2018-04-08T02:05:43.060Z,1002.01
2018-04-08T02:07:36.439Z,1002.00
2018-04-08T02:08:36.261Z,1002.03
2018-04-08T02:10:30.157Z,1002.02
2018-04-08T02:11:29.469Z,1002.02
2018-04-08T02:13:22.759Z,1002.00
2018-04-08T02:14:22.676Z,1001.97
2018-04-08T02:16:16.054Z,1001.97
2018-04-08T02:17:15.883Z,1001.95
2018-04-08T02:19:09.172Z,1001.98
2018-04-08T02:20:09.090Z,1001.95
2018-04-08T02:22:02.363Z,1001.94
2018-04-08T02:23:02.300Z,1001.92
2018-04-08T02:24:55.695Z,1001.93
2018-04-08T02:25:55.506Z,1001.94
2018-04-08T02:27:48.777Z,1001.89
2018-04-08T02:28:48.712Z,1001.91
2018-04-08T02:30:42.108Z,1001.91
2018-04-08T02:31:41.921Z,1001.95
2018-04-08T02:33:35.213Z,1001.91
2018-04-08T02:34:35.128Z,1001.95
2018-04-08T02:36:28.507Z,1001.93
2018-04-08T02:37:28.338Z,1001.88
2018-04-08T02:39:21.630Z,1001.95
2018-04-08T02:40:21.544Z,1001.93
2018-04-08T02:42:14.924Z,1001.89
2018-04-08T02:43:14.754Z,1001.94
2018-04-08T02:45:08.157Z,1001.91
2018-04-08T02:46:07.962Z,1001.95
2018-04-08T02:48:01.407Z,1001.92
2018-04-08T02:49:01.348Z,1001.91
2018-04-08T02:50:54.636Z,1001.89
2018-04-08T02:51:54.553Z,1001.92
2018-04-08T02:53:47.951Z,1001.85
2018-04-08T02:54:47.766Z,1001.86
2018-04-08T02:56:41.033Z,1001.84
2018-04-08T02:57:40.970Z,1001.85
2018-04-08T02:59:34.371Z,1001.80
2018-04-08T03:00:34.176Z,1001.77
2018-04-08T03:02:27.555Z,1001.82
2018-04-08T03:03:27.388Z,1001.85
2018-04-08T03:05:20.678Z,1001.90
2018-04-08T03:06:20.594Z,1001.88
2018-04-08T03:08:13.867Z,1001.89
2018-04-08T03:09:13.802Z,1001.90
2018-04-08T03:11:07.091Z,1001.88
2018-04-08T03:12:07.008Z,1001.87
2018-04-08T03:14:00.404Z,1001.89
2018-04-08T03:15:00.218Z,1001.87
2018-04-08T03:16:53.480Z,1001.86
2018-04-08T03:17:53.418Z,1001.84
2018-04-08T03:19:46.816Z,1001.81
2018-04-08T03:20:46.621Z,1001.79
2018-04-08T03:22:40.001Z,1001.78
2018-04-08T03:23:39.828Z,1001.74
2018-04-08T03:25:33.223Z,1001.76
2018-04-08T03:26:33.034Z,1001.72
2018-04-08T03:28:26.301Z,1001.77
2018-04-08T03:29:26.240Z,1001.72
2018-04-08T03:31:19.636Z,1001.75
2018-04-08T03:32:19.443Z,1001.75
2018-04-08T03:34:12.733Z,1001.79
2018-04-08T03:35:12.650Z,1001.78
2018-04-08T03:37:05.913Z,1001.77
2018-04-08T03:38:05.848Z,1001.75
2018-04-08T03:39:59.241Z,1001.69
2018-04-08T03:40:59.050Z,1001.69
2018-04-08T03:42:52.322Z,1001.66
2018-04-08T03:43:52.257Z,1001.63
2018-04-08T03:45:46.151Z,1001.66
2018-04-08T03:46:45.460Z,1001.64
2018-04-08T03:48:38.733Z,1001.67
2018-04-08T03:49:38.669Z,1001.68
2018-04-08T03:51:32.061Z,1001.66
2018-04-08T03:52:31.871Z,1001.67
2018-04-08T03:54:25.161Z,1001.66
2018-04-08T03:55:25.076Z,1001.68
2018-04-08T03:57:18.348Z,1001.66
2018-04-08T03:58:18.282Z,1001.63
2018-04-08T04:00:11.585Z,1001.68
2018-04-08T04:01:11.500Z,1001.69
2018-04-08T04:03:04.770Z,1001.70
2018-04-08T04:04:04.706Z,1001.70
2018-04-08T04:05:58.103Z,1001.69
2018-04-08T04:06:57.910Z,1001.76
2018-04-08T04:08:51.287Z,1001.72
2018-04-08T04:09:51.115Z,1001.70
2018-04-08T04:11:44.510Z,1001.69
2018-04-08T04:12:44.321Z,1001.69
2018-04-08T04:14:37.606Z,1001.66
2018-04-08T04:15:37.524Z,1001.68
2018-04-08T04:17:30.900Z,1001.58
2018-04-08T04:18:30.718Z,1001.61
2018-04-08T04:20:24.116Z,1001.60
2018-04-08T04:21:23.925Z,1001.60
2018-04-08T04:23:17.299Z,1001.61
2018-04-08T04:24:17.126Z,1001.58
2018-04-08T04:26:10.414Z,1001.58
2018-04-08T04:27:10.331Z,1001.60
2018-04-08T04:29:03.708Z,1001.55
2018-04-08T04:30:03.538Z,1001.59
2018-04-08T04:31:56.822Z,1001.53
2018-04-08T04:32:56.740Z,1001.56
2018-04-08T04:34:50.027Z,1001.52
2018-04-08T04:35:49.943Z,1001.54
2018-04-08T04:37:43.224Z,1001.54
2018-04-08T04:38:43.150Z,1001.55
2018-04-08T04:40:36.542Z,1001.54
2018-04-08T04:41:36.352Z,1001.56
2018-04-08T04:43:29.620Z,1001.56
2018-04-08T04:44:29.555Z,1001.58
2018-04-08T04:46:22.843Z,1001.59
2018-04-08T04:47:22.757Z,1001.57
2018-04-08T04:49:16.025Z,1001.59
2018-04-08T04:50:15.959Z,1001.58
2018-04-08T04:52:09.855Z,1001.59
2018-04-08T04:53:09.163Z,1001.62
2018-04-08T04:55:02.558Z,1001.61
2018-04-08T04:56:02.368Z,1001.60
2018-04-08T04:57:55.744Z,1001.58
2018-04-08T04:58:55.572Z,1001.59
2018-04-08T05:00:48.967Z,1001.63
2018-04-08T05:01:48.776Z,1001.61
2018-04-08T05:03:42.060Z,1001.55
2018-04-08T05:04:41.988Z,1001.58
2018-04-08T05:06:34.877Z,1001.51
2018-04-08T05:07:34.689Z,1001.56
2018-04-08T05:09:27.957Z,1001.54
2018-04-08T05:10:27.892Z,1001.47
2018-04-08T05:12:21.287Z,1001.53
2018-04-08T05:13:21.096Z,1001.50
2018-04-08T05:15:14.489Z,1001.48
2018-04-08T05:16:14.299Z,1001.51
2018-04-08T05:18:07.568Z,1001.52
2018-04-08T05:19:07.502Z,1001.54
2018-04-08T05:21:00.898Z,1001.56
2018-04-08T05:22:00.706Z,1001.53
2018-04-08T05:23:54.084Z,1001.55
2018-04-08T05:24:53.910Z,1001.55
2018-04-08T05:26:47.305Z,1001.56
2018-04-08T05:27:47.107Z,1001.56
2018-04-08T05:29:40.483Z,1001.53
2018-04-08T05:30:40.309Z,1001.54
2018-04-08T05:32:33.598Z,1001.54
2018-04-08T05:33:33.512Z,1001.56
2018-04-08T05:35:26.907Z,1001.53
2018-04-08T05:36:26.717Z,1001.50
2018-04-08T05:38:20.094Z,1001.52
2018-04-08T05:39:19.922Z,1001.53
2018-04-08T05:41:13.320Z,1001.52
2018-04-08T05:42:13.128Z,1001.56
2018-04-08T05:44:06.504Z,1001.52
2018-04-08T05:45:06.331Z,1001.57
2018-04-08T05:46:59.615Z,1001.59
2018-04-08T05:47:59.532Z,1001.56
2018-04-08T05:49:52.797Z,1001.63
2018-04-08T05:50:52.736Z,1001.60
2018-04-08T05:52:46.023Z,1001.61
2018-04-08T05:53:45.939Z,1001.62
2018-04-08T05:55:39.336Z,1001.61
2018-04-08T05:56:39.145Z,1001.63
2018-04-08T05:58:32.416Z,1001.68
2018-04-08T05:59:32.350Z,1001.61
2018-04-08T06:01:25.745Z,1001.58
2018-04-08T06:02:25.557Z,1001.56
2018-04-08T06:04:18.831Z,1001.57
2018-04-08T06:05:18.765Z,1001.56
2018-04-08T06:07:12.161Z,1001.57
2018-04-08T06:08:11.961Z,1001.62
2018-04-08T06:10:05.433Z,1001.61
2018-04-08T06:11:05.345Z,1001.58
2018-04-08T06:12:58.635Z,1001.60
2018-04-08T06:13:58.559Z,1001.57
2018-04-08T06:15:51.847Z,1001.54
2018-04-08T06:16:51.761Z,1001.58
2018-04-08T06:18:45.139Z,1001.58
2018-04-08T06:19:44.969Z,1001.59
2018-04-08T06:21:38.377Z,1001.61
2018-04-08T06:22:38.179Z,1001.59
2018-04-08T06:24:31.556Z,1001.57
2018-04-08T06:25:31.388Z,1001.56
2018-04-08T06:27:24.784Z,1001.57
2018-04-08T06:28:24.585Z,1001.54
2018-04-08T06:30:18.002Z,1001.60
2018-04-08T06:31:17.835Z,1001.59
2018-04-08T06:33:11.192Z,1001.57
2018-04-08T06:34:11.003Z,1001.57
2018-04-08T06:36:04.399Z,1001.56
2018-04-08T06:37:04.210Z,1001.55
2018-04-08T06:38:57.590Z,1001.53
2018-04-08T06:39:57.423Z,1001.55
2018-04-08T06:41:50.817Z,1001.56
2018-04-08T06:42:50.627Z,1001.59
2018-04-08T06:44:43.900Z,1001.61
2018-04-08T06:45:43.837Z,1001.59
2018-04-08T06:47:37.233Z,1001.57
2018-04-08T06:48:37.039Z,1001.64
2018-04-08T06:50:30.417Z,1001.61
2018-04-08T06:51:30.249Z,1001.63
2018-04-08T06:53:23.644Z,1001.63
2018-04-08T06:54:23.456Z,1001.65
2018-04-08T06:56:16.862Z,1001.65
2018-04-08T06:57:16.665Z,1001.66
2018-04-08T06:59:09.946Z,1001.65
2018-04-08T07:00:09.874Z,1001.70
2018-04-08T07:02:03.273Z,1001.69
2018-04-08T07:03:03.084Z,1001.71
2018-04-08T07:04:56.481Z,1001.70
2018-04-08T07:05:56.295Z,1001.73
2018-04-08T07:07:49.587Z,1001.73
2018-04-08T07:08:49.508Z,1001.69
2018-04-08T07:10:42.785Z,1001.70
2018-04-08T07:11:42.717Z,1001.71
2018-04-08T07:13:36.117Z,1001.70
2018-04-08T07:14:35.929Z,1001.73
2018-04-08T07:16:29.329Z,1001.72
2018-04-08T07:17:29.140Z,1001.72
2018-04-08T07:19:22.422Z,1001.69
2018-04-08T07:20:22.352Z,1001.75
2018-04-08T07:22:15.751Z,1001.67
2018-04-08T07:23:15.563Z,1001.66
2018-04-08T07:25:08.949Z,1001.69
2018-04-08T07:26:08.782Z,1001.70
2018-04-08T07:28:02.677Z,1001.65
2018-04-08T07:29:01.991Z,1001.67
2018-04-08T07:30:55.438Z,1001.61
2018-04-08T07:31:55.346Z,1001.61
2018-04-08T07:33:48.728Z,1001.65
2018-04-08T07:34:48.561Z,1001.66
2018-04-08T07:36:41.846Z,1001.62
2018-04-08T07:37:41.766Z,1001.64
2018-04-08T07:39:35.043Z,1001.67
2018-04-08T07:40:34.985Z,1001.61
2018-04-08T07:42:28.278Z,1001.64
2018-04-08T07:43:28.200Z,1001.65
2018-04-08T07:45:21.581Z,1001.60
2018-04-08T07:46:21.416Z,1001.67
2018-04-08T07:48:14.816Z,1001.65
2018-04-08T07:49:14.634Z,1001.62
2018-04-08T07:51:08.048Z,1001.64
2018-04-08T07:52:07.848Z,1001.65
2018-04-08T07:54:01.231Z,1001.71
2018-04-08T07:55:01.066Z,1001.64
2018-04-08T07:56:54.365Z,1001.68
2018-04-08T07:57:54.286Z,1001.70
2018-04-08T07:59:47.584Z,1001.70
2018-04-08T08:00:47.506Z,1001.68
2018-04-08T08:02:40.888Z,1001.60
2018-04-08T08:03:40.721Z,1001.57
2018-04-08T08:05:34.026Z,1001.65
2018-04-08T08:06:33.948Z,1001.60
2018-04-08T08:08:27.337Z,1001.65
2018-04-08T08:09:27.164Z,1001.59
2018-04-08T08:11:20.565Z,1001.74
2018-04-08T08:12:20.381Z,1001.64
2018-04-08T08:14:13.678Z,1001.64
2018-04-08T08:15:13.606Z,1001.71
2018-04-08T08:17:06.998Z,1001.76
2018-04-08T08:18:06.810Z,1001.76
2018-04-08T08:20:00.196Z,1001.78
2018-04-08T08:21:00.037Z,1001.79
2018-04-08T08:22:53.436Z,1001.80
2018-04-08T08:23:53.257Z,1001.79
2018-04-08T08:25:46.539Z,1001.74
2018-04-08T08:26:46.479Z,1001.68
2018-04-08T08:28:39.782Z,1001.79
2018-04-08T08:29:39.704Z,1001.77
2018-04-08T08:31:33.121Z,1001.85
2018-04-08T08:32:32.932Z,1001.94
2018-04-08T08:34:26.315Z,1001.92
2018-04-08T08:35:26.157Z,1001.90
2018-04-08T08:37:19.564Z,1001.73
2018-04-08T08:38:19.401Z,1001.74
2018-04-08T08:40:12.671Z,1001.71
2018-04-08T08:41:12.613Z,1001.70
2018-04-08T08:43:06.021Z,1001.85
2018-04-08T08:44:05.845Z,1001.80
2018-04-08T08:45:59.131Z,1001.87
2018-04-08T08:46:59.078Z,1001.85
2018-04-08T08:48:52.380Z,1001.83
2018-04-08T08:49:52.304Z,1001.86
2018-04-08T08:51:45.715Z,1001.85
2018-04-08T08:52:45.542Z,1001.83
2018-04-08T08:54:38.947Z,1001.82
2018-04-08T08:55:38.773Z,1001.81
2018-04-08T08:57:32.183Z,1001.76
2018-04-08T08:58:32.014Z,1001.77
2018-04-08T09:00:25.463Z,1001.80
2018-04-08T09:01:25.264Z,1001.77
2018-04-08T09:03:19.171Z,1001.82
2018-04-08T09:04:18.503Z,1001.80
2018-04-08T09:06:11.895Z,1001.72
2018-04-08T09:07:11.740Z,1001.76
2018-04-08T09:09:05.151Z,1001.79
2018-04-08T09:10:04.978Z,1001.81
2018-04-08T09:11:58.400Z,1001.78
2018-04-08T09:12:58.216Z,1001.82
2018-04-08T09:14:51.609Z,1001.84
2018-04-08T09:15:51.455Z,1001.82
2018-04-08T09:17:44.866Z,1001.80
2018-04-08T09:18:44.698Z,1001.81
2018-04-08T09:20:37.991Z,1001.80
2018-04-08T09:21:37.937Z,1001.82
2018-04-08T09:23:31.349Z,1001.70
2018-04-08T09:24:31.182Z,1001.78
2018-04-08T09:26:24.579Z,1001.67
2018-04-08T09:27:24.426Z,1001.68
2018-04-08T09:29:17.839Z,1001.69
2018-04-08T09:30:17.669Z,1001.60
2018-04-08T09:32:11.001Z,1001.67
2018-04-08T09:33:10.913Z,1001.66
2018-04-08T09:35:04.808Z,1001.69
2018-04-08T09:36:04.156Z,1001.68
2018-04-08T09:37:57.571Z,1001.67
2018-04-08T09:38:57.404Z,1001.65
2018-04-08T09:40:50.708Z,1001.68
2018-04-08T09:41:50.646Z,1001.74
2018-04-08T09:43:43.959Z,1001.73
2018-04-08T09:44:43.886Z,1001.67
2018-04-08T09:46:37.180Z,1001.66
2018-04-08T09:47:37.131Z,1001.69
2018-04-08T09:49:30.539Z,1001.66
2018-04-08T09:50:30.369Z,1001.62
2018-04-08T09:52:23.680Z,1001.62
2018-04-08T09:53:23.609Z,1001.70
2018-04-08T09:55:16.905Z,1001.67
2018-04-08T09:56:16.851Z,1001.68
2018-04-08T09:58:10.164Z,1001.64
2018-04-08T09:59:10.093Z,1001.59
2018-04-08T10:01:03.393Z,1001.56
2018-04-08T10:02:03.342Z,1001.59
2018-04-08T10:03:56.658Z,1001.53
2018-04-08T10:04:56.588Z,1001.49
2018-04-08T10:06:49.984Z,1001.51
2018-04-08T10:07:49.838Z,1001.42
2018-04-08T10:09:43.254Z,1001.40
2018-04-08T10:10:43.087Z,1001.44
2018-04-08T10:12:36.509Z,1001.44
2018-04-08T10:13:36.339Z,1001.42
2018-04-08T10:15:29.737Z,1001.35
2018-04-08T10:16:29.593Z,1001.32
2018-04-08T10:18:23.001Z,1001.39
2018-04-08T10:19:22.845Z,1001.38
2018-04-08T10:21:16.243Z,1001.34
2018-04-08T10:22:16.098Z,1001.34
2018-04-08T10:24:09.417Z,1001.34
2018-04-08T10:25:09.351Z,1001.36
2018-04-08T10:27:02.749Z,1001.38
2018-04-08T10:28:02.603Z,1001.35
2018-04-08T10:29:56.017Z,1001.33
2018-04-08T10:30:55.852Z,1001.30
2018-04-08T10:32:49.265Z,1001.33
2018-04-08T10:33:49.099Z,1001.32
2018-04-08T10:35:42.497Z,1001.36
2018-04-08T10:36:42.347Z,1001.31
2018-04-08T10:38:35.762Z,1001.30
2018-04-08T10:39:35.596Z,1001.28
2018-04-08T10:41:28.990Z,1001.28
2018-04-08T10:42:28.843Z,1001.23
2018-04-08T10:44:22.255Z,1001.23
2018-04-08T10:45:22.086Z,1001.25
2018-04-08T10:47:15.380Z,1001.20
2018-04-08T10:48:15.327Z,1001.21
2018-04-08T10:50:08.743Z,1001.20
2018-04-08T10:51:08.571Z,1001.23
2018-04-08T10:53:01.985Z,1001.19
2018-04-08T10:54:01.817Z,1001.13
2018-04-08T10:55:55.213Z,1001.14
2018-04-08T10:56:55.063Z,1001.11
2018-04-08T10:58:48.474Z,1001.10
2018-04-08T10:59:48.306Z,1001.12
2018-04-08T11:01:41.704Z,1001.13
2018-04-08T11:02:41.562Z,1001.11
2018-04-08T11:04:34.869Z,1001.13
2018-04-08T11:05:34.797Z,1001.11
2018-04-08T11:07:28.203Z,1001.11
2018-04-08T11:08:28.041Z,1001.12
2018-04-08T11:10:21.957Z,1001.07
2018-04-08T11:11:21.286Z,1001.07
2018-04-08T11:13:14.698Z,1001.10
2018-04-08T11:14:14.531Z,1001.09
2018-04-08T11:16:07.925Z,1001.06
2018-04-08T11:17:07.776Z,1001.07
2018-04-08T11:19:01.188Z,1001.04
2018-04-08T11:20:01.018Z,1001.01
2018-04-08T11:21:54.317Z,1000.94
2018-04-08T11:22:54.288Z,1000.94
2018-04-08T11:24:47.678Z,1000.92
2018-04-08T11:25:47.502Z,1000.88
2018-04-08T11:27:40.901Z,1000.86
2018-04-08T11:28:40.739Z,1000.84
2018-04-08T11:30:34.150Z,1000.82
2018-04-08T11:31:34.006Z,1000.87
2018-04-08T11:33:27.396Z,1000.85
2018-04-08T11:34:27.262Z,1000.82
2018-04-08T11:36:20.663Z,1000.86
2018-04-08T11:37:20.514Z,1000.84
2018-04-08T11:39:13.926Z,1000.88
2018-04-08T11:40:13.756Z,1000.85
2018-04-08T11:42:07.151Z,1000.85
2018-04-08T11:43:06.998Z,1000.86
2018-04-08T11:45:00.413Z,1000.89
2018-04-08T11:46:00.246Z,1000.83
2018-04-08T11:47:53.530Z,1000.87
2018-04-08T11:48:53.478Z,1000.87
2018-04-08T11:50:46.890Z,1000.85
2018-04-08T11:51:46.724Z,1000.83
2018-04-08T11:53:40.037Z,1000.88
2018-04-08T11:54:39.967Z,1000.87
2018-04-08T11:56:33.320Z,1000.86
2018-04-08T11:57:33.267Z,1000.85
2018-04-08T11:59:26.679Z,1000.83
2018-04-08T12:00:26.499Z,1000.84
2018-04-08T12:02:19.894Z,1000.76
2018-04-08T12:03:19.743Z,1000.74
2018-04-08T12:05:13.156Z,1000.77
2018-04-08T12:06:12.988Z,1000.75
2018-04-08T12:08:06.382Z,1000.76
2018-04-08T12:09:06.222Z,1000.79
2018-04-08T12:10:59.524Z,1000.76
2018-04-08T12:11:59.454Z,1000.73
2018-04-08T12:13:52.757Z,1000.73
2018-04-08T12:14:52.688Z,1000.70
2018-04-08T12:16:46.082Z,1000.66
2018-04-08T12:17:45.922Z,1000.63
2018-04-08T12:19:39.229Z,1000.61
2018-04-08T12:20:39.157Z,1000.66
2018-04-08T12:22:32.551Z,1000.61
2018-04-08T12:23:32.400Z,1000.62
2018-04-08T12:25:25.707Z,1000.62
2018-04-08T12:26:25.635Z,1000.61
2018-04-08T12:28:19.034Z,1000.60
2018-04-08T12:29:18.870Z,1000.59
2018-04-08T12:31:12.282Z,1000.53
2018-04-08T12:32:12.113Z,1000.51
2018-04-08T12:34:05.519Z,1000.59
2018-04-08T12:35:05.342Z,1000.53
2018-04-08T12:36:58.735Z,1000.57
2018-04-08T12:37:58.566Z,1000.57
2018-04-08T12:39:51.981Z,1000.51
2018-04-08T12:40:51.802Z,1000.46
2018-04-08T12:42:45.089Z,1000.50
2018-04-08T12:43:45.038Z,1000.48
2018-04-08T12:45:38.448Z,1000.53
2018-04-08T12:46:38.270Z,1000.47
2018-04-08T12:48:31.666Z,1000.52
2018-04-08T12:49:31.504Z,1000.49
2018-04-08T12:51:24.915Z,1000.46
2018-04-08T12:52:24.737Z,1000.47
2018-04-08T12:54:18.151Z,1000.47
2018-04-08T12:55:17.973Z,1000.44
2018-04-08T12:57:11.365Z,1000.43
2018-04-08T12:58:11.273Z,1000.39
2018-04-08T13:00:04.685Z,1000.41
2018-04-08T13:01:04.504Z,1000.35
2018-04-08T13:02:57.899Z,1000.34
2018-04-08T13:03:57.736Z,1000.35
2018-04-08T13:05:51.043Z,1000.31
2018-04-08T13:06:50.969Z,1000.36
2018-04-08T13:08:44.254Z,1000.32
2018-04-08T13:09:44.203Z,1000.31
2018-04-08T13:11:37.507Z,1000.29
2018-04-08T13:12:37.434Z,1000.26
2018-04-08T13:14:31.351Z,1000.26
2018-04-08T13:15:30.666Z,1000.27
2018-04-08T13:17:24.061Z,1000.25
2018-04-08T13:18:23.900Z,1000.21
2018-04-08T13:20:17.312Z,1000.20
2018-04-08T13:21:17.134Z,1000.18
2018-04-08T13:23:10.530Z,1000.13
2018-04-08T13:24:10.368Z,1000.09
2018-04-08T13:26:03.867Z,1000.06
2018-04-08T13:27:03.596Z,1000.08
2018-04-08T13:28:56.882Z,1000.04
2018-04-08T13:29:56.833Z,1000.06
2018-04-08T13:31:50.242Z,1000.00
2018-04-08T13:32:50.067Z,999.99
2018-04-08T13:34:43.367Z,999.99
2018-04-08T13:35:43.297Z,999.96
2018-04-08T13:37:36.692Z,999.98
2018-04-08T13:38:36.537Z,999.95
2018-04-08T13:40:29.835Z,999.95
2018-04-08T13:41:29.764Z,999.97
2018-04-08T13:43:23.049Z,999.97
2018-04-08T13:44:22.999Z,999.96
2018-04-08T13:46:16.407Z,999.95
2018-04-08T13:47:16.227Z,999.97
2018-04-08T13:49:09.513Z,999.89
2018-04-08T13:50:09.460Z,999.87
2018-04-08T13:52:02.874Z,999.83
2018-04-08T13:53:02.704Z,999.84
2018-04-08T13:54:56.117Z,999.84
2018-04-08T13:55:55.935Z,999.80
2018-04-08T13:57:49.221Z,999.78
2018-04-08T13:58:49.168Z,999.79
2018-04-08T14:00:42.579Z,999.79
2018-04-08T14:01:42.400Z,999.82
2018-04-08T14:03:35.819Z,999.81
2018-04-08T14:04:35.635Z,999.78
2018-04-08T14:06:29.047Z,999.81
2018-04-08T14:07:28.868Z,999.82
2018-04-08T14:09:22.262Z,999.81
2018-04-08T14:10:22.102Z,999.79
2018-04-08T14:12:15.522Z,999.76
2018-04-08T14:13:15.332Z,999.76
2018-04-08T14:15:08.636Z,999.73
2018-04-08T14:16:08.565Z,999.69
2018-04-08T14:18:01.959Z,999.69
2018-04-08T14:19:01.807Z,999.67
2018-04-08T14:20:55.111Z,999.67
2018-04-08T14:21:55.041Z,999.66
2018-04-08T14:23:48.434Z,999.69
2018-04-08T14:24:48.277Z,999.67
2018-04-08T14:26:41.689Z,999.68
2018-04-08T14:27:41.512Z,999.64
2018-04-08T14:29:34.798Z,999.64
2018-04-08T14:30:34.746Z,999.66
2018-04-08T14:32:28.052Z,999.64
2018-04-08T14:33:27.979Z,999.62
2018-04-08T14:35:21.342Z,999.57
2018-04-08T14:36:21.271Z,999.59
2018-04-08T14:38:14.665Z,999.54
2018-04-08T14:39:14.508Z,999.56
2018-04-08T14:41:07.917Z,999.55
2018-04-08T14:42:07.740Z,999.52
2018-04-08T14:44:01.134Z,999.55
2018-04-08T14:45:00.973Z,999.49
2018-04-08T14:46:54.386Z,999.49
2018-04-08T14:47:54.210Z,999.51
2018-04-08T14:49:47.603Z,999.48
2018-04-08T14:50:47.441Z,999.46
2018-04-08T14:52:40.355Z,999.48
2018-04-08T14:53:40.182Z,999.46
2018-04-08T14:55:33.596Z,999.43
2018-04-08T14:56:33.416Z,999.42
2018-04-08T14:58:26.810Z,999.39
2018-04-08T14:59:26.651Z,999.41
2018-04-08T15:01:20.065Z,999.44
2018-04-08T15:02:19.926Z,999.42
2018-04-08T15:04:13.169Z,999.39
2018-04-08T15:05:13.119Z,999.39
2018-04-08T15:07:06.427Z,999.39
2018-04-08T15:08:06.354Z,999.40
2018-04-08T15:09:59.643Z,999.35
2018-04-08T15:10:59.588Z,999.32
2018-04-08T15:12:53.000Z,999.34
2018-04-08T15:13:52.822Z,999.32
2018-04-08T15:15:46.234Z,999.30
2018-04-08T15:16:46.054Z,999.26
2018-04-08T15:18:39.447Z,999.28
2018-04-08T15:19:39.288Z,999.26
2018-04-08T15:21:32.698Z,999.28
2018-04-08T15:22:32.520Z,999.27
2018-04-08T15:24:25.915Z,999.22
2018-04-08T15:25:25.754Z,999.23
2018-04-08T15:27:19.169Z,999.20
2018-04-08T15:28:18.992Z,999.26
2018-04-08T15:30:12.280Z,999.23
2018-04-08T15:31:12.224Z,999.27
2018-04-08T15:33:05.639Z,999.22
2018-04-08T15:34:05.458Z,999.23
2018-04-08T15:35:58.763Z,999.22
2018-04-08T15:36:58.691Z,999.21
2018-04-08T15:38:51.978Z,999.22
2018-04-08T15:39:51.930Z,999.22
2018-04-08T15:41:45.338Z,999.19
2018-04-08T15:42:45.164Z,999.25
2018-04-08T15:44:38.555Z,999.19
2018-04-08T15:45:38.423Z,999.20
2018-04-08T15:47:31.808Z,999.16
2018-04-08T15:48:31.631Z,999.21
2018-04-08T15:50:25.025Z,999.19
2018-04-08T15:51:25.096Z,999.21
2018-04-08T15:53:18.278Z,999.21
2018-04-08T15:54:18.100Z,999.21
2018-04-08T15:56:11.511Z,999.20
2018-04-08T15:57:11.338Z,999.17
2018-04-08T15:59:04.732Z,999.17
2018-04-08T16:00:04.573Z,999.18
2018-04-08T16:01:57.988Z,999.19
2018-04-08T16:02:57.808Z,999.22
2018-04-08T16:04:51.202Z,999.21
2018-04-08T16:05:51.045Z,999.23
2018-04-08T16:07:44.349Z,999.21
2018-04-08T16:08:44.278Z,999.20
2018-04-08T16:10:37.675Z,999.25
2018-04-08T16:11:37.512Z,999.25
2018-04-08T16:13:30.927Z,999.29
2018-04-08T16:14:30.748Z,999.31
2018-04-08T16:16:24.161Z,999.28
2018-04-08T16:17:23.983Z,999.27
2018-04-08T16:19:17.322Z,999.30
2018-04-08T16:20:17.270Z,999.33
2018-04-08T16:22:10.723Z,999.33
2018-04-08T16:23:10.503Z,999.29
2018-04-08T16:25:03.789Z,999.33
2018-04-08T16:26:03.738Z,999.32
2018-04-08T16:27:57.042Z,999.33
2018-04-08T16:28:56.970Z,999.34
2018-04-08T16:30:50.365Z,999.34
2018-04-08T16:31:50.202Z,999.33
2018-04-08T16:33:43.622Z,999.32
2018-04-08T16:34:43.448Z,999.32
2018-04-08T16:36:36.904Z,999.36
2018-04-08T16:37:36.687Z,999.36
2018-04-08T16:39:30.082Z,999.35
2018-04-08T16:40:29.931Z,999.34
2018-04-08T16:42:23.244Z,999.33
2018-04-08T16:43:23.185Z,999.33
2018-04-08T16:45:16.470Z,999.33
2018-04-08T16:46:16.418Z,999.34
2018-04-08T16:48:10.828Z,999.33
2018-04-08T16:49:10.659Z,999.32
2018-04-08T16:51:03.959Z,999.40
2018-04-08T16:52:03.902Z,999.38
2018-04-08T16:53:57.314Z,999.36
2018-04-08T16:54:57.147Z,999.36
2018-04-08T16:56:50.449Z,999.37
2018-04-08T16:57:50.376Z,999.38
2018-04-08T16:59:43.671Z,999.43
2018-04-08T17:00:43.617Z,999.44
2018-04-08T17:02:36.931Z,999.41
2018-04-08T17:03:36.859Z,999.38
2018-04-08T17:05:30.152Z,999.36
2018-04-08T17:06:30.098Z,999.36
2018-04-08T17:08:23.508Z,999.38
2018-04-08T17:09:23.348Z,999.36
2018-04-08T17:11:16.730Z,999.33
2018-04-08T17:12:16.576Z,999.31
2018-04-08T17:14:09.991Z,999.33
2018-04-08T17:15:09.821Z,999.31
2018-04-08T17:17:03.122Z,999.32
2018-04-08T17:18:03.051Z,999.31
2018-04-08T17:19:56.446Z,999.33
2018-04-08T17:20:56.289Z,999.29
2018-04-08T17:22:49.700Z,999.30
2018-04-08T17:23:49.527Z,999.32
2018-04-08T17:25:42.934Z,999.34
2018-04-08T17:26:42.764Z,999.33
2018-04-08T17:28:36.175Z,999.27
2018-04-08T17:29:36.013Z,999.33
2018-04-08T17:31:29.336Z,999.30
2018-04-08T17:32:29.270Z,999.27
2018-04-08T17:34:22.583Z,999.29